Hide A Way, Texas
Current Conditions -  °F | °C
As of 4:53 AM on Saturday 22 Nov 2014 (Local Time) from KTYR Reporting Station
Overcast Overcast  
Wind Chill: 59°   Ceiling: 2900
Heat Index: 59°   Visibility: 10mi
Dew Point: 52°   Wind: 14mph
Humidity: 78%   Direction: 150°SSE
Pressure: 30.11"   Gusts: NA
Location:  32.5326°N, 95.4249°W
Report Text: KTYR 221053Z AUTO 15012KT 10SM FEW018 OVC029 15/11 A3011 RMK AO2 SLP192 T01500111
Loading
Personal Weather Stations






























Interactive Weather Map New forecast layout! Learn more

10-Day Weather Forecast

Advertisements
Track Severe Weather on mobile